sensor_id;sensor_type;location;lat;lon;timestamp;pressure;altitude;pressure_sealevel;temperature;humidity
30081;BME280;16902;50.816;12.828;2023-04-06T00:03:42;98112.38;;;-0.09;100.00
30081;BME280;16902;50.816;12.828;2023-04-06T00:08:44;98116.94;;;-0.01;100.00
30081;BME280;16902;50.816;12.828;2023-04-06T00:13:46;98112.56;;;0.01;100.00
30081;BME280;16902;50.816;12.828;2023-04-06T00:18:48;98106.69;;;-0.01;100.00
30081;BME280;16902;50.816;12.828;2023-04-06T00:23:50;98106.69;;;-0.01;100.00
30081;BME280;16902;50.816;12.828;2023-04-06T00:28:52;98104.06;;;0.01;100.00
30081;BME280;16902;50.816;12.828;2023-04-06T00:33:54;98103.13;;;0.02;100.00
30081;BME280;16902;50.816;12.828;2023-04-06T00:38:56;98102.09;;;0.04;100.00
30081;BME280;16902;50.816;12.828;2023-04-06T00:43:58;98097.91;;;0.03;100.00
30081;BME280;16902;50.816;12.828;2023-04-06T00:49:00;98102.41;;;-0.01;100.00
30081;BME280;16902;50.816;12.828;2023-04-06T00:54:02;98098.13;;;0.00;100.00
30081;BME280;16902;50.816;12.828;2023-04-06T00:59:06;98093.19;;;0.10;100.00
30081;BME280;16902;50.816;12.828;2023-04-06T01:04:09;98093.50;;;0.05;100.00
30081;BME280;16902;50.816;12.828;2023-04-06T01:09:15;98091.66;;;0.07;100.00
30081;BME280;16902;50.816;12.828;2023-04-06T01:14:18;98094.59;;;0.14;100.00
30081;BME280;16902;50.816;12.828;2023-04-06T01:19:27;98086.50;;;0.20;100.00
30081;BME280;16902;50.816;12.828;2023-04-06T01:24:30;98090.28;;;0.14;100.00
30081;BME280;16902;50.816;12.828;2023-04-06T01:30:10;98086.72;;;0.17;100.00
30081;BME280;16902;50.816;12.828;2023-04-06T01:35:26;98083.22;;;0.18;100.00
30081;BME280;16902;50.816;12.828;2023-04-06T01:40:43;98079.47;;;0.11;100.00
30081;BME280;16902;50.816;12.828;2023-04-06T01:45:46;98086.34;;;0.10;100.00
30081;BME280;16902;50.816;12.828;2023-04-06T01:50:54;98081.72;;;0.03;100.00
30081;BME280;16902;50.816;12.828;2023-04-06T01:56:01;98085.59;;;0.08;100.00
30081;BME280;16902;50.816;12.828;2023-04-06T02:01:07;98075.78;;;0.15;100.00
30081;BME280;16902;50.816;12.828;2023-04-06T02:06:22;98073.53;;;0.10;100.00
30081;BME280;16902;50.816;12.828;2023-04-06T02:11:24;98070.47;;;0.05;100.00
30081;BME280;16902;50.816;12.828;2023-04-06T02:16:29;98075.19;;;-0.02;100.00
30081;BME280;16902;50.816;12.828;2023-04-06T02:21:31;98074.03;;;0.15;100.00
30081;BME280;16902;50.816;12.828;2023-04-06T02:26:33;98064.09;;;0.11;100.00
30081;BME280;16902;50.816;12.828;2023-04-06T02:31:35;98056.00;;;0.04;100.00
30081;BME280;16902;50.816;12.828;2023-04-06T02:36:38;98065.94;;;0.09;100.00
30081;BME280;16902;50.816;12.828;2023-04-06T02:41:41;98063.78;;;0.15;100.00
30081;BME280;16902;50.816;12.828;2023-04-06T02:46:45;98051.56;;;0.19;100.00
30081;BME280;16902;50.816;12.828;2023-04-06T02:51:47;98060.59;;;0.24;100.00
30081;BME280;16902;50.816;12.828;2023-04-06T02:56:57;98053.06;;;0.10;100.00
30081;BME280;16902;50.816;12.828;2023-04-06T03:02:07;98047.97;;;-0.03;100.00
30081;BME280;16902;50.816;12.828;2023-04-06T03:07:10;98056.47;;;-0.15;100.00
30081;BME280;16902;50.816;12.828;2023-04-06T03:12:13;98051.97;;;-0.11;100.00
30081;BME280;16902;50.816;12.828;2023-04-06T03:17:35;98057.91;;;-0.11;100.00
30081;BME280;16902;50.816;12.828;2023-04-06T03:22:41;98060.44;;;-0.11;100.00
30081;BME280;16902;50.816;12.828;2023-04-06T03:27:47;98064.06;;;-0.13;100.00
30081;BME280;16902;50.816;12.828;2023-04-06T03:32:52;98057.31;;;-0.27;100.00
30081;BME280;16902;50.816;12.828;2023-04-06T03:37:56;98060.50;;;-0.36;100.00
30081;BME280;16902;50.816;12.828;2023-04-06T03:42:59;98063.97;;;-0.37;100.00
30081;BME280;16902;50.816;12.828;2023-04-06T03:48:03;98065.81;;;-0.39;100.00
30081;BME280;16902;50.816;12.828;2023-04-06T03:53:09;98074.94;;;-0.48;100.00
30081;BME280;16902;50.816;12.828;2023-04-06T03:58:11;98079.31;;;-0.50;100.00
30081;BME280;16902;50.816;12.828;2023-04-06T04:03:13;98080.25;;;-0.51;100.00
30081;BME280;16902;50.816;12.828;2023-04-06T04:08:16;98083.00;;;-0.54;100.00
30081;BME280;16902;50.816;12.828;2023-04-06T04:13:18;98085.19;;;-0.48;100.00
30081;BME280;16902;50.816;12.828;2023-04-06T04:18:24;98086.69;;;-0.45;100.00
30081;BME280;16902;50.816;12.828;2023-04-06T04:23:25;98088.84;;;-0.52;100.00
30081;BME280;16902;50.816;12.828;2023-04-06T04:28:28;98086.59;;;-0.57;100.00
30081;BME280;16902;50.816;12.828;2023-04-06T04:33:30;98088.84;;;-0.65;100.00
30081;BME280;16902;50.816;12.828;2023-04-06T04:38:35;98083.50;;;-0.74;100.00
30081;BME280;16902;50.816;12.828;2023-04-06T04:43:37;98095.16;;;-0.83;100.00
30081;BME280;16902;50.816;12.828;2023-04-06T04:48:40;98089.00;;;-0.93;100.00
30081;BME280;16902;50.816;12.828;2023-04-06T04:53:43;98094.13;;;-0.93;100.00
30081;BME280;16902;50.816;12.828;2023-04-06T04:58:54;98097.47;;;-0.93;100.00
30081;BME280;16902;50.816;12.828;2023-04-06T05:03:57;98103.41;;;-0.92;100.00
30081;BME280;16902;50.816;12.828;2023-04-06T05:08:59;98108.75;;;-0.83;100.00
30081;BME280;16902;50.816;12.828;2023-04-06T05:14:04;98101.91;;;-0.69;100.00
30081;BME280;16902;50.816;12.828;2023-04-06T05:19:08;98106.84;;;-0.54;100.00
30081;BME280;16902;50.816;12.828;2023-04-06T05:24:16;98111.47;;;-0.33;100.00
30081;BME280;16902;50.816;12.828;2023-04-06T05:29:20;98105.38;;;-0.19;100.00
30081;BME280;16902;50.816;12.828;2023-04-06T05:34:23;98112.94;;;0.08;100.00
30081;BME280;16902;50.816;12.828;2023-04-06T05:39:25;98118.22;;;0.30;100.00
30081;BME280;16902;50.816;12.828;2023-04-06T05:44:28;98114.28;;;0.50;100.00
30081;BME280;16902;50.816;12.828;2023-04-06T05:49:41;98117.81;;;0.60;100.00
30081;BME280;16902;50.816;12.828;2023-04-06T05:54:49;98115.75;;;0.65;100.00
30081;BME280;16902;50.816;12.828;2023-04-06T05:59:52;98120.06;;;0.65;100.00
30081;BME280;16902;50.816;12.828;2023-04-06T06:04:56;98118.19;;;0.67;100.00
30081;BME280;16902;50.816;12.828;2023-04-06T06:10:00;98116.69;;;0.88;100.00
30081;BME280;16902;50.816;12.828;2023-04-06T06:15:07;98121.78;;;1.12;100.00
30081;BME280;16902;50.816;12.828;2023-04-06T06:20:14;98122.44;;;1.38;100.00
30081;BME280;16902;50.816;12.828;2023-04-06T06:25:18;98126.56;;;1.63;100.00
30081;BME280;16902;50.816;12.828;2023-04-06T06:30:21;98127.31;;;1.99;100.00
30081;BME280;16902;50.816;12.828;2023-04-06T06:35:25;98127.75;;;2.38;100.00
30081;BME280;16902;50.816;12.828;2023-04-06T06:40:27;98134.44;;;2.72;100.00
30081;BME280;16902;50.816;12.828;2023-04-06T06:45:30;98134.19;;;3.07;100.00
30081;BME280;16902;50.816;12.828;2023-04-06T06:50:33;98132.94;;;3.34;100.00
30081;BME280;16902;50.816;12.828;2023-04-06T06:55:35;98134.28;;;3.38;100.00
30081;BME280;16902;50.816;12.828;2023-04-06T07:00:37;98135.00;;;3.40;100.00
30081;BME280;16902;50.816;12.828;2023-04-06T07:05:44;98142.22;;;3.46;100.00
30081;BME280;16902;50.816;12.828;2023-04-06T07:10:47;98142.03;;;3.59;100.00
30081;BME280;16902;50.816;12.828;2023-04-06T07:15:50;98135.13;;;3.90;100.00
30081;BME280;16902;50.816;12.828;2023-04-06T07:20:52;98134.56;;;4.57;100.00
30081;BME280;16902;50.816;12.828;2023-04-06T07:25:54;98141.38;;;4.87;100.00
30081;BME280;16902;50.816;12.828;2023-04-06T07:30:56;98146.31;;;5.10;100.00
30081;BME280;16902;50.816;12.828;2023-04-06T07:35:58;98139.63;;;5.17;100.00
30081;BME280;16902;50.816;12.828;2023-04-06T07:41:00;98147.66;;;5.33;100.00
30081;BME280;16902;50.816;12.828;2023-04-06T07:46:05;98138.72;;;5.18;100.00
30081;BME280;16902;50.816;12.828;2023-04-06T07:51:07;98137.59;;;5.30;100.00
30081;BME280;16902;50.816;12.828;2023-04-06T07:56:13;98136.91;;;5.57;100.00
30081;BME280;16902;50.816;12.828;2023-04-06T08:01:16;98141.31;;;5.94;100.00
30081;BME280;16902;50.816;12.828;2023-04-06T08:06:18;98135.13;;;6.14;100.00
30081;BME280;16902;50.816;12.828;2023-04-06T08:11:20;98139.38;;;6.33;100.00
30081;BME280;16902;50.816;12.828;2023-04-06T08:16:23;98142.00;;;6.24;100.00
30081;BME280;16902;50.816;12.828;2023-04-06T08:21:25;98148.69;;;6.26;100.00
30081;BME280;16902;50.816;12.828;2023-04-06T08:26:27;98141.69;;;6.36;100.00
30081;BME280;16902;50.816;12.828;2023-04-06T08:31:30;98147.88;;;7.16;100.00
30081;BME280;16902;50.816;12.828;2023-04-06T08:36:32;98146.88;;;7.53;100.00
30081;BME280;16902;50.816;12.828;2023-04-06T08:41:34;98145.00;;;8.49;100.00
30081;BME280;16902;50.816;12.828;2023-04-06T08:46:36;98138.16;;;8.91;100.00
30081;BME280;16902;50.816;12.828;2023-04-06T08:51:38;98140.59;;;9.00;81.33
30081;BME280;16902;50.816;12.828;2023-04-06T08:56:40;98140.53;;;8.68;77.46
30081;BME280;16902;50.816;12.828;2023-04-06T09:01:44;98133.97;;;8.56;73.30
30081;BME280;16902;50.816;12.828;2023-04-06T09:06:47;98133.19;;;8.21;79.39
30081;BME280;16902;50.816;12.828;2023-04-06T09:11:50;98128.66;;;8.23;82.70
30081;BME280;16902;50.816;12.828;2023-04-06T09:16:52;98129.00;;;7.94;76.47
30081;BME280;16902;50.816;12.828;2023-04-06T09:22:04;98129.53;;;8.06;72.84
30081;BME280;16902;50.816;12.828;2023-04-06T09:27:09;98132.25;;;8.72;65.35
30081;BME280;16902;50.816;12.828;2023-04-06T09:32:11;98121.59;;;9.33;56.38
30081;BME280;16902;50.816;12.828;2023-04-06T09:37:18;98128.59;;;9.57;56.79
30081;BME280;16902;50.816;12.828;2023-04-06T09:42:24;98119.50;;;8.95;64.77
30081;BME280;16902;50.816;12.828;2023-04-06T09:47:27;98123.44;;;8.49;65.16
30081;BME280;16902;50.816;12.828;2023-04-06T09:52:40;98124.38;;;9.72;54.78
30081;BME280;16902;50.816;12.828;2023-04-06T09:57:55;98125.84;;;9.25;53.62
30081;BME280;16902;50.816;12.828;2023-04-06T10:08:16;98120.78;;;7.98;68.51
30081;BME280;16902;50.816;12.828;2023-04-06T10:13:19;98129.78;;;7.60;67.54
30081;BME280;16902;50.816;12.828;2023-04-06T10:18:38;98116.56;;;7.28;66.47
30081;BME280;16902;50.816;12.828;2023-04-06T10:24:43;98111.09;;;8.09;72.66
30081;BME280;16902;50.816;12.828;2023-04-06T10:29:51;98100.19;;;9.14;62.45
30081;BME280;16902;50.816;12.828;2023-04-06T10:35:16;98093.25;;;9.95;57.55
30081;BME280;16902;50.816;12.828;2023-04-06T10:40:23;98093.47;;;9.77;53.39
30081;BME280;16902;50.816;12.828;2023-04-06T10:45:59;98092.69;;;9.52;56.79
30081;BME280;16902;50.816;12.828;2023-04-06T10:51:29;98084.84;;;10.32;57.20
30081;BME280;16902;50.816;12.828;2023-04-06T10:56:51;98088.16;;;9.46;55.94
30081;BME280;16902;50.816;12.828;2023-04-06T11:01:54;98075.19;;;9.05;57.65
30081;BME280;16902;50.816;12.828;2023-04-06T11:06:57;98072.84;;;8.53;65.04
30081;BME280;16902;50.816;12.828;2023-04-06T11:12:34;98069.63;;;13.33;54.33
30081;BME280;16902;50.816;12.828;2023-04-06T11:18:31;98073.13;;;16.61;39.59
30081;BME280;16902;50.816;12.828;2023-04-06T11:30:39;98065.56;;;17.35;36.32
30081;BME280;16902;50.816;12.828;2023-04-06T11:36:06;98067.00;;;18.66;34.96
30081;BME280;16902;50.816;12.828;2023-04-06T11:41:12;98059.06;;;18.72;34.58
30081;BME280;16902;50.816;12.828;2023-04-06T11:46:17;98058.16;;;18.79;34.70
30081;BME280;16902;50.816;12.828;2023-04-06T11:51:23;98048.91;;;20.57;36.76
30081;BME280;16902;50.816;12.828;2023-04-06T11:56:32;98047.63;;;22.60;30.86
30081;BME280;16902;50.816;12.828;2023-04-06T12:01:44;98040.06;;;22.03;30.48
30081;BME280;16902;50.816;12.828;2023-04-06T12:06:50;98030.78;;;22.22;32.21
30081;BME280;16902;50.816;12.828;2023-04-06T12:11:52;98036.56;;;22.68;29.98
30081;BME280;16902;50.816;12.828;2023-04-06T12:16:54;98035.09;;;20.26;35.18
30081;BME280;16902;50.816;12.828;2023-04-06T12:21:56;98037.22;;;24.60;30.91
30081;BME280;16902;50.816;12.828;2023-04-06T12:27:00;98029.84;;;25.13;27.81
30081;BME280;16902;50.816;12.828;2023-04-06T12:32:11;98036.25;;;24.03;28.47
30081;BME280;16902;50.816;12.828;2023-04-06T12:37:13;98019.69;;;25.41;29.96
30081;BME280;16902;50.816;12.828;2023-04-06T12:42:14;98024.97;;;24.59;30.15
30081;BME280;16902;50.816;12.828;2023-04-06T12:47:17;98019.16;;;24.77;29.33
30081;BME280;16902;50.816;12.828;2023-04-06T12:52:19;98020.25;;;28.12;27.17
30081;BME280;16902;50.816;12.828;2023-04-06T12:57:21;98007.34;;;27.48;26.40
30081;BME280;16902;50.816;12.828;2023-04-06T13:02:23;97997.81;;;25.49;29.10
30081;BME280;16902;50.816;12.828;2023-04-06T13:07:28;97996.63;;;28.95;25.24
30081;BME280;16902;50.816;12.828;2023-04-06T13:12:30;97999.91;;;29.52;26.95
30081;BME280;16902;50.816;12.828;2023-04-06T13:17:31;97991.34;;;25.70;25.89
30081;BME280;16902;50.816;12.828;2023-04-06T13:22:33;97989.19;;;24.09;26.64
30081;BME280;16902;50.816;12.828;2023-04-06T13:27:35;97980.28;;;25.22;26.73
30081;BME280;16902;50.816;12.828;2023-04-06T13:32:37;97976.72;;;26.27;27.92
30081;BME280;16902;50.816;12.828;2023-04-06T13:37:39;97991.59;;;28.13;25.46
30081;BME280;16902;50.816;12.828;2023-04-06T13:42:40;97977.69;;;28.54;25.07
30081;BME280;16902;50.816;12.828;2023-04-06T13:47:45;97973.66;;;28.32;24.32
30081;BME280;16902;50.816;12.828;2023-04-06T13:52:47;97971.09;;;32.13;23.95
30081;BME280;16902;50.816;12.828;2023-04-06T13:57:50;97962.16;;;28.32;24.19
30081;BME280;16902;50.816;12.828;2023-04-06T14:02:55;97963.56;;;27.38;24.67
30081;BME280;16902;50.816;12.828;2023-04-06T14:07:57;97957.06;;;26.08;24.41
30081;BME280;16902;50.816;12.828;2023-04-06T14:12:59;97952.28;;;25.35;26.39
30081;BME280;16902;50.816;12.828;2023-04-06T14:18:00;97958.78;;;27.06;25.29
30081;BME280;16902;50.816;12.828;2023-04-06T14:23:03;97949.22;;;30.42;23.68
30081;BME280;16902;50.816;12.828;2023-04-06T14:28:07;97949.31;;;26.11;24.96
30081;BME280;16902;50.816;12.828;2023-04-06T14:33:08;97948.78;;;28.32;24.68
30081;BME280;16902;50.816;12.828;2023-04-06T14:38:10;97948.63;;;29.54;23.97
30081;BME280;16902;50.816;12.828;2023-04-06T14:43:12;97947.44;;;26.56;25.07
30081;BME280;16902;50.816;12.828;2023-04-06T14:48:13;97944.44;;;29.06;24.24
30081;BME280;16902;50.816;12.828;2023-04-06T14:53:17;97944.69;;;33.23;22.17
30081;BME280;16902;50.816;12.828;2023-04-06T14:58:19;97945.16;;;32.43;22.48
30081;BME280;16902;50.816;12.828;2023-04-06T15:03:21;97935.59;;;26.28;24.60
30081;BME280;16902;50.816;12.828;2023-04-06T15:08:23;97920.31;;;24.33;25.88
30081;BME280;16902;50.816;12.828;2023-04-06T15:13:25;97920.19;;;20.63;29.68
30081;BME280;16902;50.816;12.828;2023-04-06T15:18:28;97912.69;;;18.21;31.15
30081;BME280;16902;50.816;12.828;2023-04-06T15:23:30;97906.22;;;15.76;34.23
30081;BME280;16902;50.816;12.828;2023-04-06T15:28:31;97898.88;;;13.39;39.72
30081;BME280;16902;50.816;12.828;2023-04-06T15:33:33;97903.47;;;11.89;44.37
30081;BME280;16902;50.816;12.828;2023-04-06T15:38:34;97904.63;;;12.22;44.90
30081;BME280;16902;50.816;12.828;2023-04-06T15:43:36;97906.53;;;12.56;43.83
30081;BME280;16902;50.816;12.828;2023-04-06T15:48:40;97903.19;;;12.41;47.77
30081;BME280;16902;50.816;12.828;2023-04-06T15:53:42;97912.63;;;10.28;52.00
30081;BME280;16902;50.816;12.828;2023-04-06T15:58:44;97901.66;;;10.10;50.37
30081;BME280;16902;50.816;12.828;2023-04-06T16:03:46;97898.00;;;9.73;53.46
30081;BME280;16902;50.816;12.828;2023-04-06T16:08:48;97903.47;;;9.87;52.34
30081;BME280;16902;50.816;12.828;2023-04-06T16:13:50;97911.22;;;9.56;61.83
30081;BME280;16902;50.816;12.828;2023-04-06T16:18:56;97907.69;;;9.09;59.97
30081;BME280;16902;50.816;12.828;2023-04-06T16:23:57;97904.28;;;8.92;62.10
30081;BME280;16902;50.816;12.828;2023-04-06T16:29:00;97904.19;;;8.61;63.37
30081;BME280;16902;50.816;12.828;2023-04-06T16:34:02;97904.03;;;8.38;65.30
30081;BME280;16902;50.816;12.828;2023-04-06T16:39:04;97915.50;;;8.36;64.77
30081;BME280;16902;50.816;12.828;2023-04-06T16:44:05;97906.72;;;8.20;67.10
30081;BME280;16902;50.816;12.828;2023-04-06T16:49:07;97905.44;;;8.16;72.50
30081;BME280;16902;50.816;12.828;2023-04-06T16:54:09;97913.50;;;7.97;74.50
30081;BME280;16902;50.816;12.828;2023-04-06T16:59:11;97911.72;;;7.97;66.52
30081;BME280;16902;50.816;12.828;2023-04-06T17:04:12;97904.59;;;7.83;70.84
30081;BME280;16902;50.816;12.828;2023-04-06T17:09:14;97910.00;;;7.64;70.90
30081;BME280;16902;50.816;12.828;2023-04-06T17:14:16;97907.53;;;7.46;82.54
30081;BME280;16902;50.816;12.828;2023-04-06T17:19:19;97908.59;;;7.27;76.46
30081;BME280;16902;50.816;12.828;2023-04-06T17:24:21;97911.56;;;7.06;86.00
30081;BME280;16902;50.816;12.828;2023-04-06T17:29:22;97914.94;;;6.81;90.62
30081;BME280;16902;50.816;12.828;2023-04-06T17:34:24;97915.09;;;6.53;92.00
30081;BME280;16902;50.816;12.828;2023-04-06T17:39:26;97927.97;;;6.27;98.75
30081;BME280;16902;50.816;12.828;2023-04-06T17:44:28;97922.13;;;6.07;100.00
30081;BME280;16902;50.816;12.828;2023-04-06T17:49:30;97922.34;;;5.96;98.95
30081;BME280;16902;50.816;12.828;2023-04-06T17:54:35;97932.72;;;5.86;100.00
30081;BME280;16902;50.816;12.828;2023-04-06T17:59:37;97937.31;;;5.65;100.00
30081;BME280;16902;50.816;12.828;2023-04-06T18:04:39;97941.25;;;5.41;100.00
30081;BME280;16902;50.816;12.828;2023-04-06T18:09:44;97937.16;;;5.39;100.00
30081;BME280;16902;50.816;12.828;2023-04-06T18:14:46;97939.94;;;5.28;100.00
30081;BME280;16902;50.816;12.828;2023-04-06T18:19:48;97956.59;;;4.96;100.00
30081;BME280;16902;50.816;12.828;2023-04-06T18:24:49;97954.78;;;4.59;100.00
30081;BME280;16902;50.816;12.828;2023-04-06T18:29:52;97961.56;;;4.31;100.00
30081;BME280;16902;50.816;12.828;2023-04-06T18:34:53;97955.16;;;4.06;100.00
30081;BME280;16902;50.816;12.828;2023-04-06T18:39:57;97961.88;;;3.78;100.00
30081;BME280;16902;50.816;12.828;2023-04-06T18:44:59;97967.22;;;3.56;100.00
30081;BME280;16902;50.816;12.828;2023-04-06T18:50:01;97963.63;;;3.38;100.00
30081;BME280;16902;50.816;12.828;2023-04-06T18:55:03;97959.09;;;3.20;100.00
30081;BME280;16902;50.816;12.828;2023-04-06T19:00:05;97974.53;;;3.20;100.00
30081;BME280;16902;50.816;12.828;2023-04-06T19:05:09;97970.66;;;3.05;100.00
30081;BME280;16902;50.816;12.828;2023-04-06T19:10:11;97981.28;;;2.91;100.00
30081;BME280;16902;50.816;12.828;2023-04-06T19:15:13;97985.06;;;2.75;100.00
30081;BME280;16902;50.816;12.828;2023-04-06T19:20:15;97972.56;;;2.61;100.00
30081;BME280;16902;50.816;12.828;2023-04-06T19:25:17;97984.75;;;2.48;100.00
30081;BME280;16902;50.816;12.828;2023-04-06T19:30:19;97978.97;;;2.35;100.00
30081;BME280;16902;50.816;12.828;2023-04-06T19:35:21;97982.50;;;2.22;100.00
30081;BME280;16902;50.816;12.828;2023-04-06T19:40:23;97980.06;;;2.21;100.00
30081;BME280;16902;50.816;12.828;2023-04-06T19:45:25;97979.97;;;2.11;100.00
30081;BME280;16902;50.816;12.828;2023-04-06T19:50:27;97970.19;;;2.05;100.00
30081;BME280;16902;50.816;12.828;2023-04-06T19:55:28;97977.25;;;1.80;100.00
30081;BME280;16902;50.816;12.828;2023-04-06T20:00:31;97969.56;;;1.69;100.00
30081;BME280;16902;50.816;12.828;2023-04-06T20:05:33;97975.88;;;1.65;100.00
30081;BME280;16902;50.816;12.828;2023-04-06T20:10:35;97969.47;;;1.37;100.00
30081;BME280;16902;50.816;12.828;2023-04-06T20:15:37;97971.66;;;1.19;100.00
30081;BME280;16902;50.816;12.828;2023-04-06T20:20:39;97971.66;;;1.08;100.00
30081;BME280;16902;50.816;12.828;2023-04-06T20:25:41;97982.38;;;1.02;100.00
30081;BME280;16902;50.816;12.828;2023-04-06T20:30:43;97979.44;;;0.84;100.00
30081;BME280;16902;50.816;12.828;2023-04-06T20:35:45;97970.53;;;0.77;100.00
30081;BME280;16902;50.816;12.828;2023-04-06T20:40:46;97969.91;;;0.62;100.00
30081;BME280;16902;50.816;12.828;2023-04-06T20:45:56;97967.00;;;0.56;100.00
30081;BME280;16902;50.816;12.828;2023-04-06T20:50:58;97972.59;;;0.61;100.00
30081;BME280;16902;50.816;12.828;2023-04-06T20:56:00;97963.22;;;0.37;100.00
30081;BME280;16902;50.816;12.828;2023-04-06T21:01:13;97966.22;;;0.31;100.00
30081;BME280;16902;50.816;12.828;2023-04-06T21:06:15;97956.31;;;0.27;100.00
30081;BME280;16902;50.816;12.828;2023-04-06T21:11:17;97952.66;;;0.18;100.00
30081;BME280;16902;50.816;12.828;2023-04-06T21:16:19;97955.50;;;0.02;100.00
30081;BME280;16902;50.816;12.828;2023-04-06T21:21:21;97952.03;;;-0.10;100.00
30081;BME280;16902;50.816;12.828;2023-04-06T21:26:23;97956.28;;;-0.21;100.00
30081;BME280;16902;50.816;12.828;2023-04-06T21:31:25;97945.56;;;-0.27;100.00
30081;BME280;16902;50.816;12.828;2023-04-06T21:36:27;97949.38;;;-0.32;100.00
30081;BME280;16902;50.816;12.828;2023-04-06T21:41:29;97947.78;;;-0.46;100.00
30081;BME280;16902;50.816;12.828;2023-04-06T21:46:31;97939.09;;;-0.56;100.00
30081;BME280;16902;50.816;12.828;2023-04-06T21:51:33;97933.06;;;-0.68;100.00
30081;BME280;16902;50.816;12.828;2023-04-06T21:56:35;97940.47;;;-0.76;100.00
30081;BME280;16902;50.816;12.828;2023-04-06T22:01:37;97934.44;;;-0.88;100.00
30081;BME280;16902;50.816;12.828;2023-04-06T22:06:39;97925.88;;;-0.99;100.00
30081;BME280;16902;50.816;12.828;2023-04-06T22:11:42;97921.78;;;-1.02;100.00
30081;BME280;16902;50.816;12.828;2023-04-06T22:16:44;97922.94;;;-1.06;100.00
30081;BME280;16902;50.816;12.828;2023-04-06T22:21:46;97925.06;;;-1.13;100.00
30081;BME280;16902;50.816;12.828;2023-04-06T22:26:48;97918.94;;;-1.10;100.00
30081;BME280;16902;50.816;12.828;2023-04-06T22:31:50;97913.94;;;-1.24;100.00
30081;BME280;16902;50.816;12.828;2023-04-06T22:36:52;97918.41;;;-1.28;100.00
30081;BME280;16902;50.816;12.828;2023-04-06T22:41:54;97912.59;;;-1.30;100.00
30081;BME280;16902;50.816;12.828;2023-04-06T22:46:56;97914.84;;;-1.25;100.00
30081;BME280;16902;50.816;12.828;2023-04-06T22:51:58;97923.13;;;-1.35;100.00
30081;BME280;16902;50.816;12.828;2023-04-06T22:56:59;97914.00;;;-1.51;100.00
30081;BME280;16902;50.816;12.828;2023-04-06T23:02:01;97910.97;;;-1.44;100.00
30081;BME280;16902;50.816;12.828;2023-04-06T23:07:04;97917.19;;;-1.35;100.00
30081;BME280;16902;50.816;12.828;2023-04-06T23:12:06;97916.16;;;-1.45;100.00
30081;BME280;16902;50.816;12.828;2023-04-06T23:17:08;97915.75;;;-1.52;100.00
30081;BME280;16902;50.816;12.828;2023-04-06T23:22:10;97915.75;;;-1.52;100.00
30081;BME280;16902;50.816;12.828;2023-04-06T23:27:12;97919.81;;;-1.62;100.00
30081;BME280;16902;50.816;12.828;2023-04-06T23:32:14;97914.09;;;-1.66;100.00
30081;BME280;16902;50.816;12.828;2023-04-06T23:37:16;97902.97;;;-1.52;100.00
30081;BME280;16902;50.816;12.828;2023-04-06T23:42:18;97907.16;;;-1.51;100.00
30081;BME280;16902;50.816;12.828;2023-04-06T23:47:20;97904.38;;;-1.61;100.00
30081;BME280;16902;50.816;12.828;2023-04-06T23:52:22;97899.38;;;-1.75;100.00
30081;BME280;16902;50.816;12.828;2023-04-06T23:57:24;97892.97;;;-1.68;100.00
